createdAt,value
2023-04-12T00:01:29.355Z,3.55
2023-04-12T00:03:34.564Z,3.55
2023-04-12T00:05:39.126Z,3.55
2023-04-12T00:07:47.105Z,3.54
2023-04-12T00:09:51.130Z,3.54
2023-04-12T00:11:54.951Z,3.54
2023-04-12T00:13:58.977Z,3.54
2023-04-12T00:16:04.141Z,3.53
2023-04-12T00:18:07.618Z,3.51
2023-04-12T00:20:13.145Z,3.50
2023-04-12T00:22:17.153Z,3.51
2023-04-12T00:24:20.826Z,3.49
2023-04-12T00:26:25.277Z,3.49
2023-04-12T00:28:29.366Z,3.47
2023-04-12T00:30:33.049Z,3.45
2023-04-12T00:32:38.096Z,3.45
2023-04-12T00:34:42.046Z,3.44
2023-04-12T00:36:45.737Z,3.44
2023-04-12T00:38:49.188Z,3.40
2023-04-12T00:40:52.395Z,3.39
2023-04-12T00:42:55.621Z,3.39
2023-04-12T00:44:59.017Z,3.37
2023-04-12T00:47:03.074Z,3.35
2023-04-12T00:49:08.158Z,3.35
2023-04-12T00:51:11.553Z,3.35
2023-04-12T00:53:15.829Z,3.32
2023-04-12T00:55:19.253Z,3.28
2023-04-12T00:57:22.570Z,3.29
2023-04-12T00:59:26.647Z,3.27
2023-04-12T01:01:32.112Z,3.26
2023-04-12T01:03:35.470Z,3.22
2023-04-12T01:05:51.174Z,3.22
2023-04-12T01:08:05.301Z,3.21
2023-04-12T01:10:16.103Z,3.23
2023-04-12T01:12:27.434Z,3.22
2023-04-12T01:14:42.487Z,3.21
2023-04-12T01:16:51.279Z,3.21
2023-04-12T01:19:05.053Z,3.20
2023-04-12T01:21:16.646Z,3.21
2023-04-12T01:23:43.041Z,3.20
2023-04-12T01:26:11.177Z,3.18
2023-04-12T01:28:17.822Z,3.19
2023-04-12T01:30:26.585Z,3.19
2023-04-12T01:32:31.866Z,3.20
2023-04-12T01:34:37.099Z,3.20
2023-04-12T01:36:40.713Z,3.20
2023-04-12T01:38:45.080Z,3.20
2023-04-12T01:40:50.051Z,3.18
2023-04-12T01:43:06.177Z,3.16
2023-04-12T01:45:11.613Z,3.17
2023-04-12T01:47:15.030Z,3.17
2023-04-12T01:49:19.458Z,3.15
2023-04-12T01:51:35.309Z,3.14
2023-04-12T01:53:47.930Z,3.12
2023-04-12T01:55:54.170Z,3.09
2023-04-12T01:57:59.064Z,3.08
2023-04-12T02:00:06.662Z,3.08
2023-04-12T02:02:18.964Z,3.08
2023-04-12T02:04:23.175Z,3.08
2023-04-12T02:06:28.018Z,3.10
2023-04-12T02:08:31.907Z,3.09
2023-04-12T02:10:36.754Z,3.08
2023-04-12T02:12:40.109Z,3.07
2023-04-12T02:14:43.448Z,3.06
2023-04-12T02:16:48.097Z,3.07
2023-04-12T02:18:52.955Z,3.07
2023-04-12T02:20:57.782Z,3.07
2023-04-12T02:23:01.143Z,3.06
2023-04-12T02:25:06.479Z,3.05
2023-04-12T02:27:09.426Z,3.04
2023-04-12T02:29:14.347Z,3.04
2023-04-12T02:31:17.880Z,3.04
2023-04-12T02:33:28.354Z,3.02
2023-04-12T02:35:36.370Z,3.00
2023-04-12T02:37:46.789Z,3.00
2023-04-12T02:39:50.099Z,3.01
2023-04-12T02:41:53.628Z,3.02
2023-04-12T02:43:57.091Z,3.02
2023-04-12T02:46:00.712Z,3.00
2023-04-12T02:48:05.442Z,2.98
2023-04-12T02:50:09.832Z,2.98
2023-04-12T02:52:24.446Z,2.95
2023-04-12T02:54:40.511Z,2.94
2023-04-12T02:56:50.213Z,2.94
2023-04-12T02:59:10.608Z,2.93
2023-04-12T03:01:34.057Z,2.91
2023-04-12T03:03:57.328Z,2.91
2023-04-12T03:06:14.482Z,2.91
2023-04-12T03:08:20.509Z,2.90
2023-04-12T03:10:29.108Z,2.88
2023-04-12T03:12:41.125Z,2.87
2023-04-12T03:14:52.520Z,2.86
2023-04-12T03:16:59.821Z,2.87
2023-04-12T03:19:03.217Z,2.86
2023-04-12T03:21:07.671Z,2.86
2023-04-12T03:23:11.159Z,2.86
2023-04-12T03:25:21.292Z,2.85
2023-04-12T03:27:31.018Z,2.84
2023-04-12T03:29:35.048Z,2.84
2023-04-12T03:31:39.437Z,2.83
2023-04-12T03:33:44.964Z,2.81
2023-04-12T03:35:56.796Z,2.81
2023-04-12T03:38:01.214Z,2.82
2023-04-12T03:40:06.190Z,2.82
2023-04-12T03:42:18.697Z,2.82
2023-04-12T03:44:33.563Z,2.83
2023-04-12T03:46:42.201Z,2.82
2023-04-12T03:48:47.404Z,2.84
2023-04-12T03:50:54.801Z,2.84
2023-04-12T03:52:59.375Z,2.84
2023-04-12T03:55:08.580Z,2.84
2023-04-12T03:57:14.676Z,2.84
2023-04-12T03:59:21.175Z,2.84
2023-04-12T04:01:26.147Z,2.85
2023-04-12T04:03:30.196Z,2.86
2023-04-12T04:05:44.316Z,2.86
2023-04-12T04:07:48.978Z,2.86
2023-04-12T04:09:52.431Z,2.87
2023-04-12T04:11:56.033Z,2.87
2023-04-12T04:14:01.440Z,2.87
2023-04-12T04:16:07.190Z,2.90
2023-04-12T04:18:10.510Z,2.92
2023-04-12T04:20:14.662Z,2.95
2023-04-12T04:22:22.951Z,2.97
2023-04-12T04:24:28.316Z,3.00
2023-04-12T04:26:38.469Z,3.04
2023-04-12T04:28:50.437Z,3.04
2023-04-12T04:31:04.205Z,3.04
2023-04-12T04:33:09.002Z,3.04
2023-04-12T04:35:17.215Z,3.06
2023-04-12T04:37:43.672Z,3.06
2023-04-12T04:39:48.679Z,3.07
2023-04-12T04:41:55.151Z,3.04
2023-04-12T04:44:09.713Z,3.04
2023-04-12T04:46:21.401Z,3.04
2023-04-12T04:48:25.537Z,3.05
2023-04-12T04:50:29.724Z,3.04
2023-04-12T04:52:33.416Z,3.07
2023-04-12T04:54:43.709Z,3.10
2023-04-12T04:56:47.628Z,3.12
2023-04-12T04:58:54.737Z,3.13
2023-04-12T05:01:00.976Z,3.17
2023-04-12T05:03:08.068Z,3.19
2023-04-12T05:05:12.784Z,3.21
2023-04-12T05:07:16.420Z,3.26
2023-04-12T05:09:22.556Z,3.26
2023-04-12T05:11:32.472Z,3.29
2023-04-12T05:13:36.171Z,3.33
2023-04-12T05:15:42.258Z,3.35
2023-04-12T05:17:46.320Z,3.38
2023-04-12T05:19:51.318Z,3.41
2023-04-12T05:21:55.083Z,3.42
2023-04-12T05:23:58.596Z,3.43
2023-04-12T05:26:02.401Z,3.45
2023-04-12T05:28:12.000Z,3.46
2023-04-12T05:30:15.798Z,3.48
2023-04-12T05:32:20.305Z,3.49
2023-04-12T05:34:24.156Z,3.50
2023-04-12T05:36:32.135Z,3.52
2023-04-12T05:38:36.068Z,3.53
2023-04-12T05:40:44.905Z,3.57
2023-04-12T05:42:51.224Z,3.60
2023-04-12T05:44:56.616Z,3.62
2023-04-12T05:47:01.562Z,3.66
2023-04-12T05:49:05.148Z,3.69
2023-04-12T05:51:09.978Z,3.72
2023-04-12T05:53:14.870Z,3.76
2023-04-12T05:55:18.570Z,3.79
2023-04-12T05:57:22.254Z,3.82
2023-04-12T05:59:26.162Z,3.86
2023-04-12T06:01:32.515Z,3.89
2023-04-12T06:03:42.036Z,3.93
2023-04-12T06:05:48.070Z,3.97
2023-04-12T06:07:51.712Z,4.00
2023-04-12T06:09:56.990Z,4.03
2023-04-12T06:12:01.021Z,4.03
2023-04-12T06:14:06.435Z,4.04
2023-04-12T06:16:10.348Z,4.05
2023-04-12T06:18:14.200Z,4.05
2023-04-12T06:20:17.691Z,4.05
2023-04-12T06:22:21.132Z,3.99
2023-04-12T06:24:25.046Z,3.95
2023-04-12T06:26:37.408Z,3.92
2023-04-12T06:28:43.768Z,3.91
2023-04-12T06:30:47.643Z,3.90
2023-04-12T06:32:51.396Z,3.86
2023-04-12T06:34:55.371Z,3.72
2023-04-12T06:37:00.100Z,3.69
2023-04-12T06:39:04.014Z,3.66
2023-04-12T06:41:08.121Z,3.61
2023-04-12T06:43:14.001Z,3.52
2023-04-12T06:45:17.864Z,3.48
2023-04-12T06:47:22.939Z,3.46
2023-04-12T06:49:26.513Z,3.47
2023-04-12T06:51:30.666Z,3.47
2023-04-12T06:53:35.379Z,3.41
2023-04-12T06:55:39.081Z,3.37
2023-04-12T06:57:43.588Z,3.32
2023-04-12T06:59:49.203Z,3.28
2023-04-12T07:01:53.011Z,3.20
2023-04-12T07:03:56.915Z,3.13
2023-04-12T07:06:10.611Z,3.09
2023-04-12T07:08:21.157Z,3.00
2023-04-12T07:10:24.719Z,2.92
2023-04-12T07:12:28.452Z,2.88
2023-04-12T07:14:32.118Z,2.86
2023-04-12T07:16:37.135Z,2.89
2023-04-12T07:18:40.994Z,2.87
2023-04-12T07:20:44.610Z,2.83
2023-04-12T07:22:48.199Z,2.76
2023-04-12T07:24:52.237Z,2.65
2023-04-12T07:26:59.377Z,2.64
2023-04-12T07:29:02.837Z,2.63
2023-04-12T07:31:07.859Z,2.59
2023-04-12T07:33:19.467Z,2.61
2023-04-12T07:35:23.885Z,2.62
2023-04-12T07:37:27.553Z,2.54
2023-04-12T07:39:31.945Z,2.56
2023-04-12T07:41:35.651Z,2.58
2023-04-12T07:43:39.343Z,2.67
2023-04-12T07:45:42.988Z,2.76
2023-04-12T07:47:46.771Z,2.87
2023-04-12T07:49:51.794Z,2.99
2023-04-12T07:51:55.522Z,3.11
2023-04-12T07:53:59.308Z,3.16
2023-04-12T07:56:05.224Z,3.25
2023-04-12T07:58:10.109Z,3.34
2023-04-12T08:00:14.452Z,3.46
2023-04-12T08:02:25.214Z,3.53
2023-04-12T08:04:29.291Z,3.62
2023-04-12T08:06:34.581Z,3.66
2023-04-12T08:08:38.278Z,3.77
2023-04-12T08:10:41.931Z,3.88
2023-04-12T08:12:45.708Z,4.03
2023-04-12T08:14:49.171Z,4.15
2023-04-12T08:16:52.631Z,4.27
2023-04-12T08:18:56.407Z,4.39
2023-04-12T08:21:00.892Z,4.55
2023-04-12T08:23:05.969Z,4.74
2023-04-12T08:25:10.848Z,4.95
2023-04-12T08:27:14.305Z,5.13
2023-04-12T08:29:18.111Z,5.32
2023-04-12T08:31:21.802Z,5.47
2023-04-12T08:33:25.952Z,5.58
2023-04-12T08:35:29.703Z,5.56
2023-04-12T08:37:33.436Z,5.45
2023-04-12T08:39:38.902Z,5.32
2023-04-12T08:41:43.054Z,5.19
2023-04-12T08:43:48.252Z,5.13
2023-04-12T08:45:52.138Z,5.08
2023-04-12T08:47:56.771Z,5.00
2023-04-12T08:50:02.903Z,4.87
2023-04-12T08:52:09.694Z,4.78
2023-04-12T08:54:14.424Z,4.73
2023-04-12T08:56:22.412Z,4.75
2023-04-12T08:58:27.331Z,4.79
2023-04-12T09:00:32.370Z,4.81
2023-04-12T09:02:37.658Z,4.84
2023-04-12T09:04:51.355Z,4.85
2023-04-12T09:06:55.280Z,4.84
2023-04-12T09:09:00.393Z,4.89
2023-04-12T09:11:05.365Z,4.95
2023-04-12T09:13:11.590Z,5.01
2023-04-12T09:15:18.576Z,4.96
2023-04-12T09:17:25.821Z,4.89
2023-04-12T09:19:34.599Z,4.84
2023-04-12T09:21:38.983Z,4.82
2023-04-12T09:23:43.770Z,4.87
2023-04-12T09:25:49.664Z,4.86
2023-04-12T09:27:58.515Z,4.88
2023-04-12T09:30:16.662Z,4.99
2023-04-12T09:32:28.132Z,5.19
2023-04-12T09:34:32.711Z,5.39
2023-04-12T09:36:40.634Z,5.53
2023-04-12T09:39:01.011Z,5.69
2023-04-12T09:41:22.324Z,5.80
2023-04-12T09:43:38.872Z,5.89
2023-04-12T09:45:44.201Z,5.98
2023-04-12T09:47:48.914Z,6.00
2023-04-12T09:49:53.540Z,5.87
2023-04-12T09:51:59.428Z,5.73
2023-04-12T09:54:05.505Z,5.61
2023-04-12T09:56:12.294Z,5.46
2023-04-12T09:58:21.503Z,5.43
2023-04-12T10:00:27.873Z,5.41
2023-04-12T10:02:34.101Z,5.46
2023-04-12T10:04:41.497Z,5.53
2023-04-12T10:06:46.224Z,5.61
2023-04-12T10:08:51.331Z,5.68
2023-04-12T10:10:55.347Z,5.71
2023-04-12T10:13:01.108Z,5.70
2023-04-12T10:15:12.913Z,5.70
2023-04-12T10:17:17.105Z,5.73
2023-04-12T10:19:24.431Z,5.78
2023-04-12T10:21:28.515Z,5.85
2023-04-12T10:23:33.988Z,5.90
2023-04-12T10:25:41.288Z,6.02
2023-04-12T10:27:49.070Z,6.18
2023-04-12T10:29:53.109Z,6.20
2023-04-12T10:31:58.157Z,6.18
2023-04-12T10:34:04.128Z,6.17
2023-04-12T10:36:12.519Z,6.11
2023-04-12T10:38:17.558Z,6.09
2023-04-12T10:40:21.652Z,6.11
2023-04-12T10:42:27.600Z,6.07
2023-04-12T10:44:32.524Z,6.07
2023-04-12T10:46:54.272Z,6.05
2023-04-12T10:48:59.565Z,5.98
2023-04-12T10:51:23.719Z,5.94
2023-04-12T10:53:27.418Z,5.92
2023-04-12T10:55:33.791Z,5.96
2023-04-12T10:57:49.631Z,5.96
2023-04-12T10:59:57.596Z,6.01
2023-04-12T11:02:12.329Z,6.05
2023-04-12T11:04:20.899Z,6.07
2023-04-12T11:07:03.269Z,6.06
2023-04-12T11:09:22.353Z,6.11
2023-04-12T11:11:27.795Z,6.18
2023-04-12T11:13:36.576Z,6.17
2023-04-12T11:15:41.553Z,6.16
2023-04-12T11:17:56.976Z,6.19
2023-04-12T11:20:02.560Z,6.22
2023-04-12T11:22:10.677Z,6.22
2023-04-12T11:24:17.111Z,6.24
2023-04-12T11:26:22.346Z,6.37
2023-04-12T11:28:30.493Z,6.66
2023-04-12T11:30:35.708Z,7.04
2023-04-12T11:32:41.683Z,7.25
2023-04-12T11:34:46.985Z,7.39
2023-04-12T11:36:54.747Z,7.30
2023-04-12T11:39:00.193Z,7.17
2023-04-12T11:41:04.076Z,7.07
2023-04-12T11:43:07.891Z,6.99
2023-04-12T11:45:18.174Z,6.91
2023-04-12T11:47:24.128Z,6.88
2023-04-12T11:49:28.868Z,6.85
2023-04-12T11:51:33.973Z,6.83
2023-04-12T11:53:37.882Z,6.78
2023-04-12T11:55:43.057Z,6.80
2023-04-12T11:57:54.980Z,6.71
2023-04-12T12:00:00.853Z,6.67
2023-04-12T12:02:17.183Z,6.70
2023-04-12T12:04:26.896Z,6.79
2023-04-12T12:06:31.581Z,6.86
2023-04-12T12:08:35.845Z,6.91
2023-04-12T12:10:52.317Z,6.88
2023-04-12T12:13:10.604Z,6.82
2023-04-12T12:15:17.022Z,6.81
2023-04-12T12:17:20.911Z,6.77
2023-04-12T12:19:29.867Z,6.80
2023-04-12T12:21:33.659Z,6.83
2023-04-12T12:23:37.771Z,6.90
2023-04-12T12:25:48.376Z,6.99
2023-04-12T12:27:59.525Z,7.00
2023-04-12T12:30:06.004Z,6.96
2023-04-12T12:32:15.493Z,6.90
2023-04-12T12:34:20.324Z,6.87
2023-04-12T12:36:31.525Z,6.90
2023-04-12T12:38:37.627Z,6.83
2023-04-12T12:40:41.701Z,6.84
2023-04-12T12:42:50.109Z,6.84
2023-04-12T12:44:53.880Z,6.84
2023-04-12T12:47:10.070Z,6.84
2023-04-12T12:49:17.977Z,6.84
2023-04-12T12:51:21.795Z,6.87
2023-04-12T12:53:25.548Z,6.91
2023-04-12T12:55:30.316Z,6.91
2023-04-12T12:57:35.858Z,6.89
2023-04-12T12:59:39.525Z,6.89
2023-04-12T13:01:43.269Z,6.80
2023-04-12T13:03:48.997Z,6.73
2023-04-12T13:05:52.911Z,6.67
2023-04-12T13:07:57.079Z,6.64
2023-04-12T13:10:01.051Z,6.62
2023-04-12T13:12:05.127Z,6.54
2023-04-12T13:14:08.915Z,6.49
2023-04-12T13:16:12.771Z,6.44
2023-04-12T13:18:17.025Z,6.37
2023-04-12T13:20:21.993Z,6.29
2023-04-12T13:22:27.550Z,6.20
2023-04-12T13:24:31.414Z,6.09
2023-04-12T13:26:35.364Z,6.00
2023-04-12T13:28:38.861Z,5.91
2023-04-12T13:30:42.682Z,5.85
2023-04-12T13:32:46.393Z,5.78
2023-04-12T13:34:50.148Z,5.73
2023-04-12T13:36:55.592Z,5.74
2023-04-12T13:38:59.784Z,5.74
2023-04-12T13:41:04.252Z,5.75
2023-04-12T13:43:08.938Z,5.69
2023-04-12T13:45:13.490Z,5.72
2023-04-12T13:47:18.080Z,5.73
2023-04-12T13:49:22.092Z,5.74
2023-04-12T13:51:27.041Z,5.69
2023-04-12T13:53:32.164Z,5.64
2023-04-12T13:55:36.152Z,5.58
2023-04-12T13:57:39.839Z,5.54
2023-04-12T13:59:43.471Z,5.51
2023-04-12T14:01:47.655Z,5.46
2023-04-12T14:03:51.455Z,5.42
2023-04-12T14:05:56.215Z,5.38
2023-04-12T14:08:00.139Z,5.37
2023-04-12T14:10:06.051Z,5.38
2023-04-12T14:12:09.557Z,5.39
2023-04-12T14:14:14.851Z,5.39
2023-04-12T14:16:20.309Z,5.40
2023-04-12T14:18:23.968Z,5.42
2023-04-12T14:20:27.743Z,5.43
2023-04-12T14:22:31.723Z,5.43
2023-04-12T14:24:35.552Z,5.42
2023-04-12T14:26:41.324Z,5.42
2023-04-12T14:28:45.300Z,5.42
2023-04-12T14:30:50.682Z,5.45
2023-04-12T14:32:54.629Z,5.48
2023-04-12T14:34:58.551Z,5.49
2023-04-12T14:37:02.238Z,5.51
2023-04-12T14:39:09.372Z,5.53
2023-04-12T14:41:14.766Z,5.56
2023-04-12T14:43:19.760Z,5.59
2023-04-12T14:45:24.206Z,5.61
2023-04-12T14:47:27.916Z,5.63
2023-04-12T14:49:33.196Z,5.67
2023-04-12T14:51:37.303Z,5.69
2023-04-12T14:53:43.008Z,5.71
2023-04-12T14:55:47.288Z,5.73
2023-04-12T14:57:51.493Z,5.74
2023-04-12T14:59:57.125Z,5.75
2023-04-12T15:02:01.139Z,5.79
2023-04-12T15:04:06.825Z,5.80
2023-04-12T15:06:11.375Z,5.81
2023-04-12T15:08:14.957Z,5.86
2023-04-12T15:10:19.044Z,5.87
2023-04-12T15:12:22.717Z,5.89
2023-04-12T15:14:26.425Z,5.90
2023-04-12T15:16:31.821Z,5.89
2023-04-12T15:18:38.206Z,5.88
2023-04-12T15:20:41.831Z,5.88
2023-04-12T15:22:45.762Z,5.85
2023-04-12T15:24:49.529Z,5.85
2023-04-12T15:26:54.180Z,5.87
2023-04-12T15:28:57.786Z,5.85
2023-04-12T15:31:01.466Z,5.82
2023-04-12T15:33:06.901Z,5.77
2023-04-12T15:37:18.471Z,5.69
2023-04-12T15:39:22.513Z,5.66
2023-04-12T15:41:26.727Z,5.64
2023-04-12T15:43:31.084Z,5.62
2023-04-12T15:45:35.005Z,5.59
2023-04-12T15:47:39.024Z,5.60
2023-04-12T15:49:44.274Z,5.57
2023-04-12T15:51:47.861Z,5.54
2023-04-12T15:53:51.847Z,5.53
2023-04-12T15:55:55.554Z,5.53
2023-04-12T15:57:58.930Z,5.52
2023-04-12T16:00:12.383Z,5.49
2023-04-12T16:02:15.882Z,5.47
2023-04-12T16:04:19.535Z,5.47
2023-04-12T16:06:25.658Z,5.47
2023-04-12T16:08:29.232Z,5.48
2023-04-12T16:10:33.565Z,5.48
2023-04-12T16:12:37.022Z,5.49
2023-04-12T16:14:40.962Z,5.50
2023-04-12T16:16:45.009Z,5.51
2023-04-12T16:18:48.905Z,5.52
2023-04-12T16:20:52.987Z,5.53
2023-04-12T16:22:59.124Z,5.54
2023-04-12T16:25:02.496Z,5.54
2023-04-12T16:27:06.183Z,5.55
2023-04-12T16:29:10.954Z,5.58
2023-04-12T16:31:15.782Z,5.59
2023-04-12T16:33:19.453Z,5.61
2023-04-12T16:35:23.083Z,5.65
2023-04-12T16:37:29.864Z,5.67
2023-04-12T16:39:35.443Z,5.67
2023-04-12T16:41:39.405Z,5.69
2023-04-12T16:43:45.417Z,5.68
2023-04-12T16:45:49.655Z,5.71
2023-04-12T16:47:53.613Z,5.71
2023-04-12T16:49:57.662Z,5.74
2023-04-12T16:52:01.544Z,5.77
2023-04-12T16:54:05.422Z,5.78
2023-04-12T16:56:12.078Z,5.82
2023-04-12T16:58:16.442Z,5.84
2023-04-12T17:00:25.305Z,5.86
2023-04-12T17:02:29.140Z,5.89
2023-04-12T17:04:33.109Z,5.90
2023-04-12T17:06:38.556Z,5.90
2023-04-12T17:08:44.184Z,5.91
2023-04-12T17:10:47.801Z,5.93
2023-04-12T17:12:54.123Z,5.93
2023-04-12T17:14:58.478Z,5.93
2023-04-12T17:17:06.247Z,5.95
2023-04-12T17:19:10.754Z,5.93
2023-04-12T17:21:19.209Z,5.91
2023-04-12T17:23:23.200Z,5.87
2023-04-12T17:25:31.488Z,5.84
2023-04-12T17:27:37.689Z,5.81
2023-04-12T17:29:42.771Z,5.77
2023-04-12T17:31:50.748Z,5.72
2023-04-12T17:33:56.972Z,5.68
2023-04-12T17:36:02.067Z,5.65
2023-04-12T17:38:05.767Z,5.64
2023-04-12T17:40:12.101Z,5.62
2023-04-12T17:42:27.257Z,5.60
2023-04-12T17:44:32.633Z,5.60
2023-04-12T17:46:38.243Z,5.59
2023-04-12T17:48:42.762Z,5.58
2023-04-12T17:50:47.425Z,5.58
2023-04-12T17:52:51.108Z,5.58
2023-04-12T17:54:55.137Z,5.62
2023-04-12T17:56:58.710Z,5.63
2023-04-12T17:59:06.088Z,5.65
2023-04-12T18:01:10.025Z,5.68
2023-04-12T18:03:16.078Z,5.70
2023-04-12T18:05:20.090Z,5.71
2023-04-12T18:07:24.408Z,5.74
2023-04-12T18:09:28.676Z,5.76
2023-04-12T18:11:34.464Z,5.76
2023-04-12T18:13:38.200Z,5.76
2023-04-12T18:15:41.835Z,5.78
2023-04-12T18:17:45.680Z,5.78
2023-04-12T18:19:50.720Z,5.78
2023-04-12T18:21:54.002Z,5.78
2023-04-12T18:23:59.307Z,5.79
2023-04-12T18:26:03.444Z,5.79
2023-04-12T18:28:08.771Z,5.82
2023-04-12T18:30:12.565Z,5.84
2023-04-12T18:32:17.335Z,5.87
2023-04-12T18:34:21.179Z,5.90
2023-04-12T18:36:28.620Z,5.93
2023-04-12T18:38:33.213Z,5.98
2023-04-12T18:40:39.213Z,6.02
2023-04-12T18:42:42.931Z,6.06
2023-04-12T18:44:46.624Z,6.10
2023-04-12T18:46:50.411Z,6.12
2023-04-12T18:48:54.965Z,6.15
2023-04-12T18:50:59.640Z,6.18
2023-04-12T18:53:04.811Z,6.22
2023-04-12T18:55:09.645Z,6.22
2023-04-12T18:57:13.868Z,6.24
2023-04-12T18:59:18.097Z,6.25
2023-04-12T19:01:22.578Z,6.26
2023-04-12T19:03:28.472Z,6.26
2023-04-12T19:05:32.343Z,6.27
2023-04-12T19:07:36.412Z,6.25
2023-04-12T19:09:41.414Z,6.25
2023-04-12T19:11:45.736Z,6.25
2023-04-12T19:13:49.994Z,6.21
2023-04-12T19:15:55.994Z,6.18
2023-04-12T19:18:01.143Z,6.16
2023-04-12T19:20:05.333Z,6.13
2023-04-12T19:22:09.231Z,6.09
2023-04-12T19:24:13.090Z,6.07
2023-04-12T19:26:40.113Z,6.04
2023-04-12T19:28:46.082Z,6.01
2023-04-12T19:30:49.770Z,5.99
2023-04-12T19:32:53.563Z,5.97
2023-04-12T19:34:57.605Z,5.95
2023-04-12T19:37:01.384Z,5.92
2023-04-12T19:39:05.299Z,5.89
2023-04-12T19:41:09.218Z,5.85
2023-04-12T19:43:19.309Z,5.81
2023-04-12T19:45:23.469Z,5.77
2023-04-12T19:47:27.549Z,5.74
2023-04-12T19:49:33.497Z,5.70
2023-04-12T19:51:38.063Z,5.70
2023-04-12T19:53:42.201Z,5.69
2023-04-12T19:55:46.168Z,5.71
2023-04-12T19:57:50.090Z,5.70
2023-04-12T19:59:55.603Z,5.72
2023-04-12T20:01:59.377Z,5.73
2023-04-12T20:04:05.834Z,5.75
2023-04-12T20:06:10.000Z,5.74
2023-04-12T20:08:14.854Z,5.74
2023-04-12T20:10:18.974Z,5.73
2023-04-12T20:12:22.687Z,5.71
2023-04-12T20:14:27.138Z,5.68
2023-04-12T20:16:35.953Z,5.66
2023-04-12T20:18:40.091Z,5.63
2023-04-12T20:20:45.794Z,5.59
2023-04-12T20:22:52.216Z,5.55
2023-04-12T20:24:57.541Z,5.53
2023-04-12T20:27:02.436Z,5.52
2023-04-12T20:29:06.902Z,5.50
2023-04-12T20:31:10.870Z,5.48
2023-04-12T20:33:17.061Z,5.47
2023-04-12T20:35:21.774Z,5.46
2023-04-12T20:37:25.668Z,5.45
2023-04-12T20:39:29.741Z,5.44
2023-04-12T20:41:33.930Z,5.43
2023-04-12T20:43:44.003Z,5.41
2023-04-12T20:45:48.984Z,5.42
2023-04-12T20:47:53.518Z,5.41
2023-04-12T20:49:58.671Z,5.41
2023-04-12T20:52:03.883Z,5.43
2023-04-12T20:54:07.741Z,5.42
2023-04-12T20:56:11.108Z,5.41
2023-04-12T20:58:15.514Z,5.41
2023-04-12T21:00:23.899Z,5.40
2023-04-12T21:02:27.776Z,5.38
2023-04-12T21:04:32.533Z,5.38
2023-04-12T21:06:37.708Z,5.37
2023-04-12T21:08:43.699Z,5.37
2023-04-12T21:10:48.278Z,5.36
2023-04-12T21:12:51.888Z,5.37
2023-04-12T21:14:58.090Z,5.37
2023-04-12T21:17:07.508Z,5.38
2023-04-12T21:19:11.456Z,5.39
2023-04-12T21:21:15.688Z,5.42
2023-04-12T21:23:20.953Z,5.42
2023-04-12T21:25:26.112Z,5.43
2023-04-12T21:27:30.232Z,5.45
2023-04-12T21:29:34.781Z,5.43
2023-04-12T21:31:41.956Z,5.43
2023-04-12T21:33:45.975Z,5.42
2023-04-12T21:35:49.624Z,5.40
2023-04-12T21:37:53.460Z,5.39
2023-04-12T21:39:58.397Z,5.39
2023-04-12T21:42:02.113Z,5.39
2023-04-12T21:44:06.019Z,5.39
2023-04-12T21:46:10.350Z,5.38
2023-04-12T21:48:14.823Z,5.39
2023-04-12T21:50:18.468Z,5.36
2023-04-12T21:52:22.141Z,5.37
2023-04-12T21:54:26.976Z,5.37
2023-04-12T21:56:32.235Z,5.35
2023-04-12T21:58:37.440Z,5.36
2023-04-12T22:00:42.102Z,5.35
2023-04-12T22:02:46.247Z,5.35
2023-04-12T22:04:50.720Z,5.33
2023-04-12T22:06:55.850Z,5.30
2023-04-12T22:09:04.508Z,5.27
2023-04-12T22:11:09.658Z,5.25
2023-04-12T22:13:14.454Z,5.22
2023-04-12T22:15:18.424Z,5.19
2023-04-12T22:17:22.718Z,5.18
2023-04-12T22:19:26.374Z,5.17
2023-04-12T22:21:30.694Z,5.16
2023-04-12T22:23:34.573Z,5.14
2023-04-12T22:25:38.910Z,5.15
2023-04-12T22:27:47.018Z,5.18
2023-04-12T22:29:52.230Z,5.19
2023-04-12T22:31:56.331Z,5.22
2023-04-12T22:34:01.868Z,5.25
2023-04-12T22:36:08.710Z,5.29
2023-04-12T22:38:14.829Z,5.31
2023-04-12T22:40:18.602Z,5.34
2023-04-12T22:42:26.069Z,5.36
2023-04-12T22:44:30.183Z,5.38
2023-04-12T22:46:39.462Z,5.38
2023-04-12T22:48:43.766Z,5.36
2023-04-12T22:50:47.747Z,5.33
2023-04-12T22:52:51.327Z,5.29
2023-04-12T22:54:54.980Z,5.24
2023-04-12T22:56:58.802Z,5.21
2023-04-12T22:59:02.822Z,5.18
2023-04-12T23:01:07.428Z,5.16
2023-04-12T23:03:12.750Z,5.13
2023-04-12T23:05:16.662Z,5.08
2023-04-12T23:07:20.652Z,5.05
2023-04-12T23:09:25.739Z,5.04
2023-04-12T23:11:29.849Z,5.03
2023-04-12T23:13:34.402Z,4.99
2023-04-12T23:15:40.754Z,4.98
2023-04-12T23:17:44.639Z,4.97
2023-04-12T23:19:50.618Z,4.95
2023-04-12T23:21:54.850Z,4.93
2023-04-12T23:23:59.331Z,4.93
2023-04-12T23:26:03.351Z,4.90
2023-04-12T23:28:13.484Z,4.90
2023-04-12T23:30:18.519Z,4.89
2023-04-12T23:32:22.478Z,4.87
2023-04-12T23:34:26.755Z,4.86
2023-04-12T23:36:31.703Z,4.84
2023-04-12T23:38:35.256Z,4.83
2023-04-12T23:40:39.057Z,4.82
2023-04-12T23:42:44.443Z,4.82
2023-04-12T23:44:48.084Z,4.83
2023-04-12T23:46:51.811Z,4.80
2023-04-12T23:48:55.657Z,4.80
2023-04-12T23:50:59.450Z,4.79
2023-04-12T23:53:04.761Z,4.81
2023-04-12T23:55:09.520Z,4.80
2023-04-12T23:57:14.013Z,4.81
2023-04-12T23:59:17.587Z,4.81
